Antares — DFJQ — position and weather

sailwx.info

Track history (hours):
 
Tides and Currents Weather Stations Pressure Air Temp Water Temp Dewpoint Dewpoint Depression Visibility Wind Speed Wind Dir Waves Ship Positions

Antares

Last reported at 2015-Mar-27 03:30 UTC. Time now 2015-Mar-27 03:37 UTC.
Position N 54°09' E 012°08'.

Length 79 m; draft 4.9 m.

Type: Ship. MMSI: 218777000.

Date/timePositionNaut miles runAvg speedWind from/ knotsBaromVisibWave heightAir tempDewpointWater temp
2015-Mar-27 03:30N 54°09' E 012°08'0 0.0
2015-Mar-27 01:30N 54°09' E 012°08'0 0.0
2015-Mar-27 00:33N 54°09' E 012°08'2 2.3
2015-Mar-26 23:34N 54°11' E 012°05'1010.0
2015-Mar-26 22:33N 54°20' E 011°59'7 7.4
2015-Mar-26 21:34N 54°27' E 012°05'1010.0
2015-Mar-26 20:33N 54°35' E 012°14'1010.1
2015-Mar-26 19:33N 54°42' E 012°28'1010.3
2015-Mar-26 18:33N 54°47' E 012°43'10 9.9
2015-Mar-26 17:33N 54°47' E 012°60'10 9.8
2015-Mar-26 16:33N 54°46' E 013°17'10 9.8
2015-Mar-26 15:33N 54°46' E 013°34'10 9.5
2015-Mar-26 14:33N 54°37' E 013°42'8 7.7
2015-Mar-26 13:33N 54°30' E 013°41'4 3.7
2015-Mar-26 12:33N 54°29' E 013°35'0 0.0
2015-Mar-26 11:34N 54°29' E 013°35'0 0.0
2015-Mar-26 10:33N 54°29' E 013°35'0 0.0
2015-Mar-26 09:34N 54°29' E 013°35'0 0.0
2015-Mar-26 08:34N 54°29' E 013°35'0 0.0
2015-Mar-26 07:34N 54°29' E 013°35'3 2.9
2015-Mar-26 06:34N 54°30' E 013°40'0 0.2
2015-Mar-26 05:30N 54°30' E 013°40'0 0.0
2015-Mar-26 04:33N 54°30' E 013°40'2 1.6
2015-Mar-26 03:33N 54°30' E 013°43'8 8.0
2015-Mar-26 02:33N 54°38' E 013°39'8 7.7
2015-Mar-26 01:33N 54°45' E 013°31'7 7.5
2015-Mar-26 00:33N 54°52' E 013°27'9 7.2
2015-Mar-25 23:21N 54°60' E 013°22'5 5.4
2015-Mar-25 22:21N 55°03' E 013°14'5 5.4
2015-Mar-25 21:21N 55°06' E 013°06'4 5.2
2015-Mar-25 20:33N 55°08' E 013°00'5 5.0
2015-Mar-25 19:33N 55°12' E 012°54'5 5.3
2015-Mar-25 18:33N 55°15' E 012°47'6 6.1
2015-Mar-25 17:33N 55°18' E 012°38'8 8.4
2015-Mar-25 16:33N 55°26' E 012°40'9 9.0
2015-Mar-25 15:33N 55°35' E 012°42'6 5.6
2015-Mar-25 14:33N 55°41' E 012°38'0 0.0
2015-Mar-25 13:32N 55°41' E 012°38'0 0.0
2015-Mar-25 12:32N 55°41' E 012°38'0 0.0
2015-Mar-25 11:32N 55°41' E 012°38'0 0.0
2015-Mar-25 10:32N 55°41' E 012°38'0 0.0
2015-Mar-25 09:32N 55°41' E 012°38'0 0.0
2015-Mar-25 08:32N 55°41' E 012°38'0 0.0
2015-Mar-25 07:32N 55°41' E 012°38'0 0.0
2015-Mar-25 06:32N 55°41' E 012°38'1 0.6
2015-Mar-25 05:33N 55°41' E 012°38'0 0.1
2015-Mar-25 04:33N 55°41' E 012°38'0 0.0
2015-Mar-25 03:33N 55°41' E 012°38'0 0.0
2015-Mar-25 02:33N 55°41' E 012°38'0 0.0
2015-Mar-25 01:33N 55°41' E 012°38'0 0.0
2015-Mar-25 00:33N 55°41' E 012°38'0 0.0
2015-Mar-24 23:33N 55°41' E 012°38'0 0.0
2015-Mar-24 22:33N 55°41' E 012°38'0 0.0
2015-Mar-24 21:33N 55°41' E 012°38'0 0.0
2015-Mar-24 20:33N 55°41' E 012°38'0 0.0
2015-Mar-24 19:33N 55°41' E 012°38'0 0.0
2015-Mar-24 18:33N 55°41' E 012°38'0 0.0
2015-Mar-24 17:33N 55°41' E 012°38'0 0.0
2015-Mar-24 16:33N 55°41' E 012°38'0 0.0
2015-Mar-24 15:33N 55°41' E 012°38'1 1.5
2015-Mar-24 14:33N 55°40' E 012°40'8 8.3
2015-Mar-24 13:33N 55°32' E 012°42'10 9.8
2015-Mar-24 12:33N 55°22' E 012°41'1010.3
2015-Mar-24 11:33N 55°12' E 012°41'10 9.5
2015-Mar-24 10:33N 55°03' E 012°43'18 9.0
2015-Mar-24 08:32N 54°44' E 012°40'10 9.9
2015-Mar-24 07:34N 54°39' E 012°27'9 9.5
2015-Mar-24 06:33N 54°32' E 012°16'9 9.4
2015-Mar-24 05:33N 54°25' E 012°05'1110.6
2015-Mar-24 04:33N 54°25' E 011°47'1110.6
2015-Mar-24 03:33N 54°29' E 011°31'1010.1
2015-Mar-24 02:33N 54°34' E 011°15'11 9.9
2015-Mar-24 01:24N 54°34' E 010°55'1110.2
2015-Mar-24 00:19N 54°33' E 010°36'810.0
2015-Mar-23 23:33N 54°30' E 010°24'10 9.7
2015-Mar-23 22:33N 54°23' E 010°12'3 2.6
2015-Mar-23 21:33N 54°22' E 010°09'6 5.9
2015-Mar-23 20:33N 54°21' E 009°59'8 8.1
2015-Mar-23 19:33N 54°20' E 009°45'6 6.0
2015-Mar-23 18:33N 54°16' E 009°38'5 5.4
2015-Mar-23 17:32N 54°12' E 009°32'8 8.1
2015-Mar-23 16:32N 54°08' E 009°20'8 8.5
2015-Mar-23 15:33N 53°60' E 009°17'7 7.0
2015-Mar-23 14:34N 53°54' E 009°10'1 1.2
2015-Mar-23 13:33N 53°53' E 009°08'1 1.2
2015-Mar-23 12:31N 53°53' E 009°06'0 0.1
2015-Mar-23 11:34N 53°53' E 009°06'7 6.9
2015-Mar-23 10:33N 53°52' E 009°18'1212.0
2015-Mar-23 09:33N 53°42' E 009°30'1211.6
2015-Mar-23 08:33N 53°34' E 009°44'8 8.1
2015-Mar-23 07:33N 53°31' E 009°56'0 0.0
2015-Mar-23 06:29N 53°31' E 009°56'0 0.0
2015-Mar-23 05:29N 53°31' E 009°56'0 0.0
2015-Mar-23 04:29N 53°31' E 009°56'0 0.0
2015-Mar-23 03:17N 53°31' E 009°56'0 0.0
2015-Mar-23 02:32N 53°31' E 009°56'0 0.0
2015-Mar-23 01:29N 53°31' E 009°56'0 0.0
2015-Mar-23 00:32N 53°31' E 009°56'0 0.0
2015-Mar-22 23:32N 53°31' E 009°56'0 0.0
2015-Mar-22 22:29N 53°31' E 009°56'0 0.0
2015-Mar-22 21:32N 53°31' E 009°56'0 0.0
2015-Mar-22 20:33N 53°31' E 009°56'4 3.5
2015-Mar-22 19:33N 53°33' E 009°51'8 8.0
2015-Mar-22 18:33N 53°35' E 009°38'9 8.8
2015-Mar-22 17:33N 53°42' E 009°30'10 9.8
2015-Mar-22 16:33N 53°50' E 009°21'1010.3
2015-Mar-22 15:33N 53°52' E 009°03'1111.0
2015-Mar-22 14:33N 53°51' E 008°45'1 1.3
2015-Mar-22 13:28N 53°52' E 008°43'0 0.0
2015-Mar-22 12:31N 53°52' E 008°43'0 0.0
2015-Mar-22 11:28N 53°52' E 008°43'0 0.0
2015-Mar-22 10:31N 53°52' E 008°43'0 0.0
2015-Mar-22 09:31N 53°52' E 008°43'0 0.0
2015-Mar-22 08:31N 53°52' E 008°43'0 0.0
2015-Mar-22 07:31N 53°52' E 008°43'0 0.0
2015-Mar-22 06:28N 53°52' E 008°43'0 0.0
2015-Mar-22 05:31N 53°52' E 008°43'0 0.0
2015-Mar-22 04:31N 53°52' E 008°43'0 0.0
2015-Mar-22 03:31N 53°52' E 008°43'0 0.0
2015-Mar-22 02:31N 53°52' E 008°43'0 0.0
2015-Mar-22 01:28N 53°52' E 008°43'0 0.0
2015-Mar-22 00:31N 53°52' E 008°43'0 0.0
2015-Mar-21 23:31N 53°52' E 008°43'0 0.0
2015-Mar-21 22:31N 53°52' E 008°43'0 0.0
2015-Mar-21 21:31N 53°52' E 008°43'0 0.0
2015-Mar-21 20:31N 53°52' E 008°43'0 0.0
2015-Mar-21 19:31N 53°52' E 008°43'0 0.0
2015-Mar-21 18:31N 53°52' E 008°43'0 0.0
2015-Mar-21 17:31N 53°52' E 008°43'0 0.0
2015-Mar-21 16:31N 53°52' E 008°43'0 0.0
2015-Mar-21 15:28N 53°52' E 008°43'0 0.0
2015-Mar-21 14:31N 53°52' E 008°43'0 0.0
2015-Mar-21 13:31N 53°52' E 008°43'0 0.0
2015-Mar-21 12:31N 53°52' E 008°43'0 0.0
2015-Mar-21 11:31N 53°52' E 008°43'0 0.0
2015-Mar-21 10:31N 53°52' E 008°43'0 0.0
2015-Mar-21 09:31N 53°52' E 008°43'0 0.0
2015-Mar-21 08:31N 53°52' E 008°43'0 0.0
2015-Mar-21 07:31N 53°52' E 008°43'0 0.2
2015-Mar-21 06:33N 53°52' E 008°43'0 0.1
2015-Mar-21 05:32N 53°52' E 008°43'0 0.0
2015-Mar-21 04:32N 53°52' E 008°43'0 0.0
2015-Mar-21 03:32N 53°52' E 008°43'0 0.0
2015-Mar-21 02:29N 53°52' E 008°43'0 0.0
2015-Mar-21 01:34N 53°52' E 008°43'3 3.2
2015-Mar-21 00:33N 53°55' E 008°41'4 4.2
2015-Mar-20 23:34N 53°52' E 008°45'5 4.8
2015-Mar-20 22:33N 53°51' E 008°53'8 7.7
2015-Mar-20 21:33N 53°53' E 009°05'2 2.1
2015-Mar-20 20:33N 53°54' E 009°09'4 3.9
2015-Mar-20 19:33N 53°56' E 009°13'8 8.1
2015-Mar-20 18:33N 54°04' E 009°19'6 5.6
2015-Mar-20 17:33N 54°09' E 009°22'8 7.9
2015-Mar-20 16:32N 54°13' E 009°35'4 4.6
2015-Mar-20 15:33N 54°17' E 009°38'7 6.6
2015-Mar-20 14:34N 54°21' E 009°46'8 7.8
2015-Mar-20 13:33N 54°21' E 009°60'4 3.8
2015-Mar-20 12:34N 54°22' E 010°06'2 2.2
2015-Mar-20 11:34N 54°22' E 010°09'1 1.1
2015-Mar-20 10:31N 54°23' E 010°11'0 0.0
2015-Mar-20 09:31N 54°23' E 010°11'0 0.0
2015-Mar-20 08:31N 54°23' E 010°11'0 0.0
2015-Mar-20 07:31N 54°23' E 010°11'1 1.4
2015-Mar-20 06:33N 54°24' E 010°12'1010.1
2015-Mar-20 05:33N 54°31' E 010°24'1110.6
2015-Mar-20 04:33N 54°35' E 010°41'1110.7
2015-Mar-20 03:33N 54°36' E 010°59'1111.4
2015-Mar-20 02:33N 54°34' E 011°19'1111.4
2015-Mar-20 01:34N 54°27' E 011°34'1111.0
2015-Mar-20 00:33N 54°19' E 011°48'1111.5
2015-Mar-19 23:33N 54°13' E 012°04'4 3.8
2015-Mar-19 22:31N 54°09' E 012°08'0 0.0
2015-Mar-19 21:28N 54°09' E 012°08'0 0.0
2015-Mar-19 20:34N 54°09' E 012°08'0 0.0
2015-Mar-19 19:31N 54°09' E 012°08'0 0.0
2015-Mar-19 18:22N 54°09' E 012°08'0 0.0
2015-Mar-19 17:25N 54°09' E 012°08'0 0.0
2015-Mar-19 16:13N 54°09' E 012°08'0 0.0
2015-Mar-19 15:25N 54°09' E 012°08'0 0.0
2015-Mar-19 14:25N 54°09' E 012°08'0 0.0
2015-Mar-19 13:25N 54°09' E 012°08'0 0.0
2015-Mar-19 12:31N 54°09' E 012°08'0 0.0
2015-Mar-19 11:31N 54°09' E 012°08'5 5.0
2015-Mar-19 10:33N 54°13' E 012°02'10 9.9
2015-Mar-19 09:33N 54°18' E 011°49'1010.1
2015-Mar-19 08:33N 54°25' E 011°35'9 9.4
2015-Mar-19 07:33N 54°31' E 011°23'9 8.7
2015-Mar-19 06:33N 54°35' E 011°09'9 9.4
2015-Mar-19 05:33N 54°34' E 010°53'1010.2
2015-Mar-19 04:33N 54°33' E 010°36'10 9.9
2015-Mar-19 03:33N 54°30' E 010°20'10 9.6
2015-Mar-19 02:34N 54°22' E 010°10'3 2.8
2015-Mar-19 01:33N 54°22' E 010°05'7 7.1
2015-Mar-19 00:33N 54°21' E 009°53'7 6.7
2015-Mar-18 23:33N 54°19' E 009°43'7 7.4
2015-Mar-18 22:33N 54°13' E 009°35'9 8.7
2015-Mar-18 21:32N 54°09' E 009°21'8 8.5
2015-Mar-18 20:33N 54°01' E 009°18'8 7.5
2015-Mar-18 19:33N 53°55' E 009°11'2 1.9
2015-Mar-18 18:33N 53°53' E 009°08'9 9.4
2015-Mar-18 17:33N 53°49' E 009°22'1212.3
2015-Mar-18 16:33N 53°38' E 009°32'1212.2
2015-Mar-18 15:33N 53°33' E 009°51'5 4.7
2015-Mar-18 14:33N 53°30' E 009°57'0 0.0
2015-Mar-18 13:33N 53°30' E 009°57'0 0.0
2015-Mar-18 12:21N 53°30' E 009°57'0 0.0
2015-Mar-18 11:24N 53°30' E 009°57'0 0.0
2015-Mar-18 10:33N 53°30' E 009°57'0 0.0
2015-Mar-18 09:30N 53°30' E 009°57'0 0.0
2015-Mar-18 08:15N 53°30' E 009°57'0 0.0
2015-Mar-18 07:33N 53°30' E 009°57'1 0.8
2015-Mar-18 06:32N 53°31' E 009°57'1 1.1
2015-Mar-18 05:19N 53°32' E 009°58'0 0.0
2015-Mar-18 04:25N 53°32' E 009°58'0 0.0
2015-Mar-18 03:31N 53°32' E 009°58'0 0.0
2015-Mar-18 02:28N 53°32' E 009°58'0 0.0
2015-Mar-18 01:16N 53°32' E 009°58'0 0.0
2015-Mar-18 00:31N 53°32' E 009°58'0 0.0
2015-Mar-17 23:28N 53°32' E 009°58'0 0.0
2015-Mar-17 22:22N 53°32' E 009°58'0 0.0
2015-Mar-17 21:31N 53°32' E 009°58'0 0.0
2015-Mar-17 20:31N 53°32' E 009°58'0 0.0
2015-Mar-17 19:25N 53°32' E 009°58'0 0.0
2015-Mar-17 18:31N 53°32' E 009°58'0 0.0
2015-Mar-17 17:19N 53°32' E 009°58'0 0.0
2015-Mar-17 16:25N 53°32' E 009°58'0 0.0
2015-Mar-17 15:28N 53°32' E 009°58'0 0.0
2015-Mar-17 14:31N 53°32' E 009°58'0 0.0
2015-Mar-17 13:28N 53°32' E 009°58'0 0.0
2015-Mar-17 12:31N 53°32' E 009°58'0 0.0
2015-Mar-17 11:22N 53°32' E 009°58'0 0.0
2015-Mar-17 10:31N 53°32' E 009°58'0 0.0
2015-Mar-17 09:31N 53°32' E 009°58'0 0.0
2015-Mar-17 08:31N 53°32' E 009°58'0 0.0
2015-Mar-17 07:31N 53°32' E 009°58'0 0.0
2015-Mar-17 06:31N 53°32' E 009°58'0 0.0
2015-Mar-17 05:25N 53°32' E 009°58'0 0.0
2015-Mar-17 04:31N 53°32' E 009°58'0 0.0
2015-Mar-17 03:31N 53°32' E 009°58'  
Track history (hours):
 
Tides and Currents Weather Stations Pressure Air Temp Water Temp Dewpoint Dewpoint Depression Visibility Wind Speed Wind Dir Waves Ship Positions

Antares

Last reported at 2015-Mar-27 03:30 UTC. Time now 2015-Mar-27 03:37 UTC.
Position N 54°09' E 012°08'.

Length 79 m; draft 4.9 m.

Type: Ship. MMSI: 218777000.

Date/timePositionNaut miles runAvg speedWind from/ knotsBaromVisibWave heightAir tempDewpointWater temp
2015-Mar-27 03:30N 54°09' E 012°08'0 0.0
2015-Mar-27 01:30N 54°09' E 012°08'0 0.0
2015-Mar-27 00:33N 54°09' E 012°08'2 2.3
2015-Mar-26 23:34N 54°11' E 012°05'1010.0
2015-Mar-26 22:33N 54°20' E 011°59'7 7.4
2015-Mar-26 21:34N 54°27' E 012°05'1010.0
2015-Mar-26 20:33N 54°35' E 012°14'1010.1
2015-Mar-26 19:33N 54°42' E 012°28'1010.3
2015-Mar-26 18:33N 54°47' E 012°43'10 9.9
2015-Mar-26 17:33N 54°47' E 012°60'10 9.8
2015-Mar-26 16:33N 54°46' E 013°17'10 9.8
2015-Mar-26 15:33N 54°46' E 013°34'10 9.5
2015-Mar-26 14:33N 54°37' E 013°42'8 7.7
2015-Mar-26 13:33N 54°30' E 013°41'4 3.7
2015-Mar-26 12:33N 54°29' E 013°35'0 0.0
2015-Mar-26 11:34N 54°29' E 013°35'0 0.0
2015-Mar-26 10:33N 54°29' E 013°35'0 0.0
2015-Mar-26 09:34N 54°29' E 013°35'0 0.0
2015-Mar-26 08:34N 54°29' E 013°35'0 0.0
2015-Mar-26 07:34N 54°29' E 013°35'3 2.9
2015-Mar-26 06:34N 54°30' E 013°40'0 0.2
2015-Mar-26 05:30N 54°30' E 013°40'0 0.0
2015-Mar-26 04:33N 54°30' E 013°40'2 1.6
2015-Mar-26 03:33N 54°30' E 013°43'8 8.0
2015-Mar-26 02:33N 54°38' E 013°39'8 7.7
2015-Mar-26 01:33N 54°45' E 013°31'7 7.5
2015-Mar-26 00:33N 54°52' E 013°27'9 7.2
2015-Mar-25 23:21N 54°60' E 013°22'5 5.4
2015-Mar-25 22:21N 55°03' E 013°14'5 5.4
2015-Mar-25 21:21N 55°06' E 013°06'4 5.2
2015-Mar-25 20:33N 55°08' E 013°00'5 5.0
2015-Mar-25 19:33N 55°12' E 012°54'5 5.3
2015-Mar-25 18:33N 55°15' E 012°47'6 6.1
2015-Mar-25 17:33N 55°18' E 012°38'8 8.4
2015-Mar-25 16:33N 55°26' E 012°40'9 9.0
2015-Mar-25 15:33N 55°35' E 012°42'6 5.6
2015-Mar-25 14:33N 55°41' E 012°38'0 0.0
2015-Mar-25 13:32N 55°41' E 012°38'0 0.0
2015-Mar-25 12:32N 55°41' E 012°38'0 0.0
2015-Mar-25 11:32N 55°41' E 012°38'0 0.0
2015-Mar-25 10:32N 55°41' E 012°38'0 0.0
2015-Mar-25 09:32N 55°41' E 012°38'0 0.0
2015-Mar-25 08:32N 55°41' E 012°38'0 0.0
2015-Mar-25 07:32N 55°41' E 012°38'0 0.0
2015-Mar-25 06:32N 55°41' E 012°38'1 0.6
2015-Mar-25 05:33N 55°41' E 012°38'0 0.1
2015-Mar-25 04:33N 55°41' E 012°38'0 0.0
2015-Mar-25 03:33N 55°41' E 012°38'0 0.0
2015-Mar-25 02:33N 55°41' E 012°38'0 0.0
2015-Mar-25 01:33N 55°41' E 012°38'0 0.0
2015-Mar-25 00:33N 55°41' E 012°38'0 0.0
2015-Mar-24 23:33N 55°41' E 012°38'0 0.0
2015-Mar-24 22:33N 55°41' E 012°38'0 0.0
2015-Mar-24 21:33N 55°41' E 012°38'0 0.0
2015-Mar-24 20:33N 55°41' E 012°38'0 0.0
2015-Mar-24 19:33N 55°41' E 012°38'0 0.0
2015-Mar-24 18:33N 55°41' E 012°38'0 0.0
2015-Mar-24 17:33N 55°41' E 012°38'0 0.0
2015-Mar-24 16:33N 55°41' E 012°38'0 0.0
2015-Mar-24 15:33N 55°41' E 012°38'1 1.5
2015-Mar-24 14:33N 55°40' E 012°40'8 8.3
2015-Mar-24 13:33N 55°32' E 012°42'10 9.8
2015-Mar-24 12:33N 55°22' E 012°41'1010.3
2015-Mar-24 11:33N 55°12' E 012°41'10 9.5
2015-Mar-24 10:33N 55°03' E 012°43'18 9.0
2015-Mar-24 08:32N 54°44' E 012°40'10 9.9
2015-Mar-24 07:34N 54°39' E 012°27'9 9.5
2015-Mar-24 06:33N 54°32' E 012°16'9 9.4
2015-Mar-24 05:33N 54°25' E 012°05'1110.6
2015-Mar-24 04:33N 54°25' E 011°47'1110.6
2015-Mar-24 03:33N 54°29' E 011°31'1010.1
2015-Mar-24 02:33N 54°34' E 011°15'11 9.9
2015-Mar-24 01:24N 54°34' E 010°55'1110.2
2015-Mar-24 00:19N 54°33' E 010°36'810.0
2015-Mar-23 23:33N 54°30' E 010°24'10 9.7
2015-Mar-23 22:33N 54°23' E 010°12'3 2.6
2015-Mar-23 21:33N 54°22' E 010°09'6 5.9
2015-Mar-23 20:33N 54°21' E 009°59'8 8.1
2015-Mar-23 19:33N 54°20' E 009°45'6 6.0
2015-Mar-23 18:33N 54°16' E 009°38'5 5.4
2015-Mar-23 17:32N 54°12' E 009°32'8 8.1
2015-Mar-23 16:32N 54°08' E 009°20'8 8.5
2015-Mar-23 15:33N 53°60' E 009°17'7 7.0
2015-Mar-23 14:34N 53°54' E 009°10'1 1.2
2015-Mar-23 13:33N 53°53' E 009°08'1 1.2
2015-Mar-23 12:31N 53°53' E 009°06'0 0.1
2015-Mar-23 11:34N 53°53' E 009°06'7 6.9
2015-Mar-23 10:33N 53°52' E 009°18'1212.0
2015-Mar-23 09:33N 53°42' E 009°30'1211.6
2015-Mar-23 08:33N 53°34' E 009°44'8 8.1
2015-Mar-23 07:33N 53°31' E 009°56'0 0.0
2015-Mar-23 06:29N 53°31' E 009°56'0 0.0
2015-Mar-23 05:29N 53°31' E 009°56'0 0.0
2015-Mar-23 04:29N 53°31' E 009°56'0 0.0
2015-Mar-23 03:17N 53°31' E 009°56'0 0.0
2015-Mar-23 02:32N 53°31' E 009°56'0 0.0
2015-Mar-23 01:29N 53°31' E 009°56'0 0.0
2015-Mar-23 00:32N 53°31' E 009°56'0 0.0
2015-Mar-22 23:32N 53°31' E 009°56'0 0.0
2015-Mar-22 22:29N 53°31' E 009°56'0 0.0
2015-Mar-22 21:32N 53°31' E 009°56'0 0.0
2015-Mar-22 20:33N 53°31' E 009°56'4 3.5
2015-Mar-22 19:33N 53°33' E 009°51'8 8.0
2015-Mar-22 18:33N 53°35' E 009°38'9 8.8
2015-Mar-22 17:33N 53°42' E 009°30'10 9.8
2015-Mar-22 16:33N 53°50' E 009°21'1010.3
2015-Mar-22 15:33N 53°52' E 009°03'1111.0
2015-Mar-22 14:33N 53°51' E 008°45'1 1.3
2015-Mar-22 13:28N 53°52' E 008°43'0 0.0
2015-Mar-22 12:31N 53°52' E 008°43'0 0.0
2015-Mar-22 11:28N 53°52' E 008°43'0 0.0
2015-Mar-22 10:31N 53°52' E 008°43'0 0.0
2015-Mar-22 09:31N 53°52' E 008°43'0 0.0
2015-Mar-22 08:31N 53°52' E 008°43'0 0.0
2015-Mar-22 07:31N 53°52' E 008°43'0 0.0
2015-Mar-22 06:28N 53°52' E 008°43'0 0.0
2015-Mar-22 05:31N 53°52' E 008°43'0 0.0
2015-Mar-22 04:31N 53°52' E 008°43'0 0.0
2015-Mar-22 03:31N 53°52' E 008°43'0 0.0
2015-Mar-22 02:31N 53°52' E 008°43'0 0.0
2015-Mar-22 01:28N 53°52' E 008°43'0 0.0
2015-Mar-22 00:31N 53°52' E 008°43'0 0.0
2015-Mar-21 23:31N 53°52' E 008°43'0 0.0
2015-Mar-21 22:31N 53°52' E 008°43'0 0.0
2015-Mar-21 21:31N 53°52' E 008°43'0 0.0
2015-Mar-21 20:31N 53°52' E 008°43'0 0.0
2015-Mar-21 19:31N 53°52' E 008°43'0 0.0
2015-Mar-21 18:31N 53°52' E 008°43'0 0.0
2015-Mar-21 17:31N 53°52' E 008°43'0 0.0
2015-Mar-21 16:31N 53°52' E 008°43'0 0.0
2015-Mar-21 15:28N 53°52' E 008°43'0 0.0
2015-Mar-21 14:31N 53°52' E 008°43'0 0.0
2015-Mar-21 13:31N 53°52' E 008°43'0 0.0
2015-Mar-21 12:31N 53°52' E 008°43'0 0.0
2015-Mar-21 11:31N 53°52' E 008°43'0 0.0
2015-Mar-21 10:31N 53°52' E 008°43'0 0.0
2015-Mar-21 09:31N 53°52' E 008°43'0 0.0
2015-Mar-21 08:31N 53°52' E 008°43'0 0.0
2015-Mar-21 07:31N 53°52' E 008°43'0 0.2
2015-Mar-21 06:33N 53°52' E 008°43'0 0.1
2015-Mar-21 05:32N 53°52' E 008°43'0 0.0
2015-Mar-21 04:32N 53°52' E 008°43'0 0.0
2015-Mar-21 03:32N 53°52' E 008°43'0 0.0
2015-Mar-21 02:29N 53°52' E 008°43'0 0.0
2015-Mar-21 01:34N 53°52' E 008°43'3 3.2
2015-Mar-21 00:33N 53°55' E 008°41'4 4.2
2015-Mar-20 23:34N 53°52' E 008°45'5 4.8
2015-Mar-20 22:33N 53°51' E 008°53'8 7.7
2015-Mar-20 21:33N 53°53' E 009°05'2 2.1
2015-Mar-20 20:33N 53°54' E 009°09'4 3.9
2015-Mar-20 19:33N 53°56' E 009°13'8 8.1
2015-Mar-20 18:33N 54°04' E 009°19'6 5.6
2015-Mar-20 17:33N 54°09' E 009°22'8 7.9
2015-Mar-20 16:32N 54°13' E 009°35'4 4.6
2015-Mar-20 15:33N 54°17' E 009°38'7 6.6
2015-Mar-20 14:34N 54°21' E 009°46'8 7.8
2015-Mar-20 13:33N 54°21' E 009°60'4 3.8
2015-Mar-20 12:34N 54°22' E 010°06'2 2.2
2015-Mar-20 11:34N 54°22' E 010°09'1 1.1
2015-Mar-20 10:31N 54°23' E 010°11'0 0.0
2015-Mar-20 09:31N 54°23' E 010°11'0 0.0
2015-Mar-20 08:31N 54°23' E 010°11'0 0.0
2015-Mar-20 07:31N 54°23' E 010°11'1 1.4
2015-Mar-20 06:33N 54°24' E 010°12'1010.1
2015-Mar-20 05:33N 54°31' E 010°24'1110.6
2015-Mar-20 04:33N 54°35' E 010°41'1110.7
2015-Mar-20 03:33N 54°36' E 010°59'1111.4
2015-Mar-20 02:33N 54°34' E 011°19'1111.4
2015-Mar-20 01:34N 54°27' E 011°34'1111.0
2015-Mar-20 00:33N 54°19' E 011°48'1111.5
2015-Mar-19 23:33N 54°13' E 012°04'4 3.8
2015-Mar-19 22:31N 54°09' E 012°08'0 0.0
2015-Mar-19 21:28N 54°09' E 012°08'0 0.0
2015-Mar-19 20:34N 54°09' E 012°08'0 0.0
2015-Mar-19 19:31N 54°09' E 012°08'0 0.0
2015-Mar-19 18:22N 54°09' E 012°08'0 0.0
2015-Mar-19 17:25N 54°09' E 012°08'0 0.0
2015-Mar-19 16:13N 54°09' E 012°08'0 0.0
2015-Mar-19 15:25N 54°09' E 012°08'0 0.0
2015-Mar-19 14:25N 54°09' E 012°08'0 0.0
2015-Mar-19 13:25N 54°09' E 012°08'0 0.0
2015-Mar-19 12:31N 54°09' E 012°08'0 0.0
2015-Mar-19 11:31N 54°09' E 012°08'5 5.0
2015-Mar-19 10:33N 54°13' E 012°02'10 9.9
2015-Mar-19 09:33N 54°18' E 011°49'1010.1
2015-Mar-19 08:33N 54°25' E 011°35'9 9.4
2015-Mar-19 07:33N 54°31' E 011°23'9 8.7
2015-Mar-19 06:33N 54°35' E 011°09'9 9.4
2015-Mar-19 05:33N 54°34' E 010°53'1010.2
2015-Mar-19 04:33N 54°33' E 010°36'10 9.9
2015-Mar-19 03:33N 54°30' E 010°20'10 9.6
2015-Mar-19 02:34N 54°22' E 010°10'3 2.8
2015-Mar-19 01:33N 54°22' E 010°05'7 7.1
2015-Mar-19 00:33N 54°21' E 009°53'7 6.7
2015-Mar-18 23:33N 54°19' E 009°43'7 7.4
2015-Mar-18 22:33N 54°13' E 009°35'9 8.7
2015-Mar-18 21:32N 54°09' E 009°21'8 8.5
2015-Mar-18 20:33N 54°01' E 009°18'8 7.5
2015-Mar-18 19:33N 53°55' E 009°11'2 1.9
2015-Mar-18 18:33N 53°53' E 009°08'9 9.4
2015-Mar-18 17:33N 53°49' E 009°22'1212.3
2015-Mar-18 16:33N 53°38' E 009°32'1212.2
2015-Mar-18 15:33N 53°33' E 009°51'5 4.7
2015-Mar-18 14:33N 53°30' E 009°57'0 0.0
2015-Mar-18 13:33N 53°30' E 009°57'0 0.0
2015-Mar-18 12:21N 53°30' E 009°57'0 0.0
2015-Mar-18 11:24N 53°30' E 009°57'0 0.0
2015-Mar-18 10:33N 53°30' E 009°57'0 0.0
2015-Mar-18 09:30N 53°30' E 009°57'0 0.0
2015-Mar-18 08:15N 53°30' E 009°57'0 0.0
2015-Mar-18 07:33N 53°30' E 009°57'1 0.8
2015-Mar-18 06:32N 53°31' E 009°57'1 1.1
2015-Mar-18 05:19N 53°32' E 009°58'0 0.0
2015-Mar-18 04:25N 53°32' E 009°58'0 0.0
2015-Mar-18 03:31N 53°32' E 009°58'0 0.0
2015-Mar-18 02:28N 53°32' E 009°58'0 0.0
2015-Mar-18 01:16N 53°32' E 009°58'0 0.0
2015-Mar-18 00:31N 53°32' E 009°58'0 0.0
2015-Mar-17 23:28N 53°32' E 009°58'0 0.0
2015-Mar-17 22:22N 53°32' E 009°58'0 0.0
2015-Mar-17 21:31N 53°32' E 009°58'0 0.0
2015-Mar-17 20:31N 53°32' E 009°58'0 0.0
2015-Mar-17 19:25N 53°32' E 009°58'0 0.0
2015-Mar-17 18:31N 53°32' E 009°58'0 0.0
2015-Mar-17 17:19N 53°32' E 009°58'0 0.0
2015-Mar-17 16:25N 53°32' E 009°58'0 0.0
2015-Mar-17 15:28N 53°32' E 009°58'0 0.0
2015-Mar-17 14:31N 53°32' E 009°58'0 0.0
2015-Mar-17 13:28N 53°32' E 009°58'0 0.0
2015-Mar-17 12:31N 53°32' E 009°58'0 0.0
2015-Mar-17 11:22N 53°32' E 009°58'0 0.0
2015-Mar-17 10:31N 53°32' E 009°58'0 0.0
2015-Mar-17 09:31N 53°32' E 009°58'0 0.0
2015-Mar-17 08:31N 53°32' E 009°58'0 0.0
2015-Mar-17 07:31N 53°32' E 009°58'0 0.0
2015-Mar-17 06:31N 53°32' E 009°58'0 0.0
2015-Mar-17 05:25N 53°32' E 009°58'0 0.0
2015-Mar-17 04:31N 53°32' E 009°58'0 0.0
2015-Mar-17 03:31N 53°32' E 009°58'  

Dump ship's entire track history